createdAt,value
2022-10-12T00:00:12.107Z,97352.84
2022-10-12T00:01:13.929Z,97343.53
2022-10-12T00:02:15.560Z,97356.72
2022-10-12T00:03:18.349Z,97348.25
2022-10-12T00:04:19.920Z,97353.69
2022-10-12T00:05:21.548Z,97357.56
2022-10-12T00:06:24.810Z,97349.09
2022-10-12T00:07:26.335Z,97351.38
2022-10-12T00:08:28.066Z,97352.94
2022-10-12T00:09:29.580Z,97352.53
2022-10-12T00:10:31.154Z,97355.25
2022-10-12T00:11:32.695Z,97349.41
2022-10-12T00:12:34.452Z,97349.75
2022-10-12T00:13:36.031Z,97350.53
2022-10-12T00:14:38.319Z,97351.31
2022-10-12T00:15:40.912Z,97351.25
2022-10-12T00:16:42.442Z,97352.84
2022-10-12T00:17:43.975Z,97348.13
2022-10-12T00:18:45.529Z,97352.41
2022-10-12T00:19:47.154Z,97353.97
2022-10-12T00:20:48.778Z,97355.94
2022-10-12T00:21:50.287Z,97355.94
2022-10-12T00:22:51.800Z,97354.75
2022-10-12T00:23:57.737Z,97345.84
2022-10-12T00:24:59.254Z,97348.19
2022-10-12T00:26:06.673Z,97346.25
2022-10-12T00:27:08.232Z,97349.03
2022-10-12T00:28:09.871Z,97346.69
2022-10-12T00:29:11.516Z,97347.41
2022-10-12T00:30:13.238Z,97345.00
2022-10-12T00:31:20.809Z,97339.88
2022-10-12T00:32:22.334Z,97346.44
2022-10-12T00:33:24.232Z,97339.44
2022-10-12T00:34:25.769Z,97345.28
2022-10-12T00:35:30.369Z,97344.91
2022-10-12T00:36:35.955Z,97341.84
2022-10-12T00:37:37.856Z,97339.59
2022-10-12T00:38:39.573Z,97341.13
2022-10-12T00:39:41.349Z,97344.28
2022-10-12T00:40:42.921Z,97338.84
2022-10-12T00:41:44.530Z,97345.84
2022-10-12T00:42:46.072Z,97343.53
2022-10-12T00:43:50.946Z,97345.13
2022-10-12T00:44:55.744Z,97345.13
2022-10-12T00:45:59.956Z,97347.47
2022-10-12T00:47:07.205Z,97345.53
2022-10-12T00:48:08.789Z,97343.97
2022-10-12T00:49:25.064Z,97346.69
2022-10-12T00:50:32.592Z,97343.63
2022-10-12T00:51:34.189Z,97341.69
2022-10-12T00:52:41.869Z,97343.19
2022-10-12T00:53:47.801Z,97340.84
2022-10-12T00:54:51.488Z,97340.47
2022-10-12T00:55:57.940Z,97342.06
2022-10-12T00:57:01.940Z,97343.63
2022-10-12T00:58:07.122Z,97340.53
2022-10-12T00:59:12.419Z,97346.75
2022-10-12T01:00:14.503Z,97339.84
2022-10-12T01:01:17.441Z,97346.03
2022-10-12T01:02:19.651Z,97341.41
2022-10-12T01:03:23.429Z,97343.31
2022-10-12T01:04:25.981Z,97338.69
2022-10-12T01:05:28.299Z,97339.47
2022-10-12T01:06:31.244Z,97336.38
2022-10-12T01:07:32.830Z,97342.25
2022-10-12T01:08:35.038Z,97343.81
2022-10-12T01:09:36.771Z,97343.03
2022-10-12T01:10:38.405Z,97339.94
2022-10-12T01:11:39.986Z,97339.94
2022-10-12T01:12:44.189Z,97336.09
2022-10-12T01:13:45.770Z,97343.09
2022-10-12T01:14:47.344Z,97337.66
2022-10-12T01:15:58.017Z,97336.81
2022-10-12T01:17:30.396Z,97337.00
2022-10-12T01:19:02.945Z,97333.31
2022-10-12T01:20:26.071Z,97335.03
2022-10-12T01:21:27.853Z,97338.22
2022-10-12T01:22:34.569Z,97342.44
2022-10-12T01:24:17.435Z,97343.72
2022-10-12T01:25:27.746Z,97339.16
2022-10-12T01:26:50.404Z,97345.41
2022-10-12T01:28:23.372Z,97337.03
2022-10-12T01:30:06.821Z,97336.69
2022-10-12T01:31:39.101Z,97335.47
2022-10-12T01:32:47.066Z,97345.59
2022-10-12T01:34:02.182Z,97337.53
2022-10-12T01:35:45.565Z,97340.38
2022-10-12T01:37:04.254Z,97337.28
2022-10-12T01:38:17.926Z,97342.69
2022-10-12T01:39:29.911Z,97347.47
2022-10-12T01:40:40.436Z,97342.09
2022-10-12T01:41:49.354Z,97338.25
2022-10-12T01:42:51.731Z,97346.81
2022-10-12T01:43:53.491Z,97342.09
2022-10-12T01:45:22.393Z,97343.69
2022-10-12T01:46:23.851Z,97343.69
2022-10-12T01:47:25.420Z,97341.31
2022-10-12T01:48:27.207Z,97344.63
2022-10-12T01:49:32.877Z,97334.88
2022-10-12T01:50:50.860Z,97342.59
2022-10-12T01:52:18.746Z,97343.44
2022-10-12T01:53:52.465Z,97334.16
2022-10-12T01:55:22.759Z,97341.84
2022-10-12T01:56:54.058Z,97338.00
2022-10-12T01:58:26.557Z,97345.00
2022-10-12T01:59:34.777Z,97339.59
2022-10-12T02:01:21.420Z,97343.44
2022-10-12T02:02:59.793Z,97340.28
2022-10-12T02:04:10.930Z,97341.00
2022-10-12T02:05:36.267Z,97338.72
2022-10-12T02:06:46.132Z,97338.00
2022-10-12T02:08:15.361Z,97343.44
2022-10-12T02:09:32.501Z,97339.59
2022-10-12T02:10:40.567Z,97341.44
2022-10-12T02:11:44.936Z,97341.44
2022-10-12T02:12:49.957Z,97342.16
2022-10-12T02:13:57.663Z,97344.81
2022-10-12T02:15:03.624Z,97346.28
2022-10-12T02:16:10.412Z,97348.47
2022-10-12T02:17:17.121Z,97341.03
2022-10-12T02:18:21.520Z,97346.44
2022-10-12T02:19:27.068Z,97352.19
2022-10-12T02:20:28.779Z,97351.41
2022-10-12T02:21:32.716Z,97354.13
2022-10-12T02:22:37.283Z,97349.84
2022-10-12T02:23:39.111Z,97350.63
2022-10-12T02:24:44.468Z,97355.25
2022-10-12T02:25:46.732Z,97347.47
2022-10-12T02:26:52.558Z,97354.84
2022-10-12T02:28:17.381Z,97358.69
2022-10-12T02:29:31.456Z,97351.25
2022-10-12T02:30:38.569Z,97350.47
2022-10-12T02:31:53.351Z,97358.25
2022-10-12T02:33:10.928Z,97357.84
2022-10-12T02:34:15.498Z,97356.69
2022-10-12T02:35:39.144Z,97355.13
2022-10-12T02:36:57.509Z,97355.97
2022-10-12T02:38:08.412Z,97351.75
2022-10-12T02:39:17.204Z,97352.19
2022-10-12T02:40:36.735Z,97354.97
2022-10-12T02:41:42.734Z,97354.28
2022-10-12T02:43:12.025Z,97348.47
2022-10-12T02:44:19.463Z,97349.69
2022-10-12T02:45:23.915Z,97351.63
2022-10-12T02:46:27.197Z,97347.69
2022-10-12T02:47:32.561Z,97352.25
2022-10-12T02:48:36.065Z,97350.69
2022-10-12T02:49:39.902Z,97349.84
2022-10-12T02:50:41.987Z,97347.56
2022-10-12T02:51:45.228Z,97353.34
2022-10-12T02:52:47.959Z,97348.25
2022-10-12T02:53:50.446Z,97353.28
2022-10-12T02:54:52.050Z,97350.56
2022-10-12T02:55:59.834Z,97349.78
2022-10-12T02:57:01.341Z,97353.47
2022-10-12T02:58:02.859Z,97354.53
2022-10-12T02:59:04.382Z,97352.28
2022-10-12T03:00:06.674Z,97358.38
2022-10-12T03:01:08.289Z,97358.13
2022-10-12T03:02:10.867Z,97353.91
2022-10-12T03:03:12.409Z,97356.75
2022-10-12T03:04:14.076Z,97361.38
2022-10-12T03:05:15.632Z,97353.69
2022-10-12T03:06:17.288Z,97358.41
2022-10-12T03:07:19.151Z,97358.41
2022-10-12T03:08:20.713Z,97357.56
2022-10-12T03:09:22.411Z,97354.41
2022-10-12T03:10:24.663Z,97361.38
2022-10-12T03:11:26.219Z,97357.41
2022-10-12T03:12:27.709Z,97361.25
2022-10-12T03:13:29.388Z,97360.38
2022-10-12T03:14:32.999Z,97356.84
2022-10-12T03:15:34.507Z,97352.56
2022-10-12T03:16:36.273Z,97350.63
2022-10-12T03:17:37.981Z,97354.81
2022-10-12T03:18:40.234Z,97354.69
2022-10-12T03:19:41.865Z,97359.66
2022-10-12T03:20:48.270Z,97349.28
2022-10-12T03:21:49.798Z,97349.34
2022-10-12T03:22:52.626Z,97346.28
2022-10-12T03:23:54.252Z,97357.53
2022-10-12T03:24:55.850Z,97354.13
2022-10-12T03:25:57.406Z,97352.97
2022-10-12T03:26:58.961Z,97352.56
2022-10-12T03:28:00.529Z,97352.28
2022-10-12T03:29:02.104Z,97358.53
2022-10-12T03:30:04.617Z,97357.41
2022-10-12T03:31:06.564Z,97359.31
2022-10-12T03:32:08.361Z,97352.44
2022-10-12T03:33:09.963Z,97356.63
2022-10-12T03:34:11.490Z,97363.53
2022-10-12T03:35:13.042Z,97360.84
2022-10-12T03:36:14.672Z,97363.53
2022-10-12T03:37:16.219Z,97360.38
2022-10-12T03:38:19.166Z,97359.59
2022-10-12T03:39:20.792Z,97360.38
2022-10-12T03:40:22.370Z,97358.81
2022-10-12T03:41:23.983Z,97355.69
2022-10-12T03:42:25.505Z,97361.47
2022-10-12T03:43:27.493Z,97361.88
2022-10-12T03:44:29.180Z,97362.94
2022-10-12T03:45:30.792Z,97368.72
2022-10-12T03:46:32.357Z,97362.16
2022-10-12T03:47:33.891Z,97370.66
2022-10-12T03:48:35.424Z,97363.59
2022-10-12T03:49:36.945Z,97366.94
2022-10-12T03:50:38.516Z,97367.22
2022-10-12T03:51:40.033Z,97358.94
2022-10-12T03:52:41.549Z,97366.53
2022-10-12T03:53:45.504Z,97368.91
2022-10-12T03:54:47.270Z,97362.63
2022-10-12T03:55:48.821Z,97364.56
2022-10-12T03:56:50.362Z,97372.31
2022-10-12T03:57:52.011Z,97362.97
2022-10-12T03:58:53.554Z,97368.03
2022-10-12T03:59:55.080Z,97363.44
2022-10-12T04:00:56.629Z,97358.44
2022-10-12T04:01:58.326Z,97360.34
2022-10-12T04:03:00.127Z,97364.91
2022-10-12T04:04:01.686Z,97361.50
2022-10-12T04:05:03.517Z,97355.72
2022-10-12T04:06:05.265Z,97366.19
2022-10-12T04:07:07.144Z,97375.88
2022-10-12T04:08:08.672Z,97367.06
2022-10-12T04:09:10.217Z,97366.72
2022-10-12T04:10:11.908Z,97363.66
2022-10-12T04:11:13.476Z,97366.00
2022-10-12T04:12:15.116Z,97366.09
2022-10-12T04:13:17.757Z,97365.38
2022-10-12T04:14:19.368Z,97370.78
2022-10-12T04:16:30.356Z,97366.94
2022-10-12T04:17:32.786Z,97370.34
2022-10-12T04:18:34.623Z,97370.06
2022-10-12T04:19:36.162Z,97358.19
2022-10-12T04:20:37.726Z,97360.22
2022-10-12T04:21:39.582Z,97364.16
2022-10-12T04:22:41.121Z,97364.22
2022-10-12T04:23:43.647Z,97369.00
2022-10-12T04:24:45.150Z,97360.09
2022-10-12T04:25:46.970Z,97367.44
2022-10-12T04:26:48.671Z,97363.53
2022-10-12T04:27:50.159Z,97366.78
2022-10-12T04:28:51.786Z,97367.78
2022-10-12T04:29:53.386Z,97365.28
2022-10-12T04:30:54.919Z,97365.19
2022-10-12T04:31:56.444Z,97369.84
2022-10-12T04:32:58.062Z,97368.34
2022-10-12T04:33:59.674Z,97366.88
2022-10-12T04:35:01.182Z,97361.09
2022-10-12T04:36:02.783Z,97365.81
2022-10-12T04:37:04.359Z,97361.19
2022-10-12T04:38:06.498Z,97364.34
2022-10-12T04:39:08.339Z,97368.22
2022-10-12T04:40:10.179Z,97366.22
2022-10-12T04:41:11.723Z,97363.94
2022-10-12T04:42:13.269Z,97365.53
2022-10-12T04:43:15.987Z,97372.06
2022-10-12T04:44:17.521Z,97371.63
2022-10-12T04:45:19.025Z,97366.22
2022-10-12T04:46:21.420Z,97371.22
2022-10-12T04:47:23.031Z,97370.78
2022-10-12T04:48:26.137Z,97374.63
2022-10-12T04:49:27.674Z,97378.44
2022-10-12T04:50:30.288Z,97373.75
2022-10-12T04:51:31.889Z,97367.50
2022-10-12T04:52:33.609Z,97375.16
2022-10-12T04:53:35.244Z,97377.88
2022-10-12T04:54:36.773Z,97378.31
2022-10-12T04:55:38.272Z,97378.31
2022-10-12T04:56:42.132Z,97383.72
2022-10-12T04:57:46.995Z,97382.16
2022-10-12T04:58:48.500Z,97386.16
2022-10-12T04:59:50.009Z,97386.16
2022-10-12T05:00:51.528Z,97387.00
2022-10-12T05:01:54.445Z,97383.16
2022-10-12T05:02:56.041Z,97381.59
2022-10-12T05:03:57.608Z,97390.06
2022-10-12T05:04:59.221Z,97386.84
2022-10-12T05:06:00.837Z,97382.50
2022-10-12T05:07:02.389Z,97385.13
2022-10-12T05:08:04.930Z,97387.31
2022-10-12T05:09:06.516Z,97387.25
2022-10-12T05:10:08.468Z,97386.47
2022-10-12T05:11:10.106Z,97390.56
2022-10-12T05:12:11.652Z,97388.59
2022-10-12T05:13:13.920Z,97398.44
2022-10-12T05:14:15.554Z,97398.44
2022-10-12T05:15:17.191Z,97393.75
2022-10-12T05:16:18.717Z,97401.41
2022-10-12T05:17:20.260Z,97397.41
2022-10-12T05:18:21.883Z,97400.34
2022-10-12T05:19:23.420Z,97395.66
2022-10-12T05:20:25.457Z,97402.19
2022-10-12T05:21:27.078Z,97394.06
2022-10-12T05:22:28.615Z,97402.44
2022-10-12T05:23:30.159Z,97400.09
2022-10-12T05:24:31.690Z,97400.88
2022-10-12T05:25:35.270Z,97400.88
2022-10-12T05:26:36.848Z,97402.25
2022-10-12T05:27:38.620Z,97399.41
2022-10-12T05:28:41.354Z,97406.38
2022-10-12T05:29:43.053Z,97403.56
2022-10-12T05:30:44.549Z,97405.06
2022-10-12T05:31:46.104Z,97403.03
2022-10-12T05:32:48.555Z,97405.31
2022-10-12T05:33:50.105Z,97406.53
2022-10-12T05:34:51.648Z,97405.84
2022-10-12T05:35:56.411Z,97411.00
2022-10-12T05:36:58.414Z,97404.47
2022-10-12T05:37:59.972Z,97410.75
2022-10-12T05:39:01.605Z,97401.41
2022-10-12T05:40:04.242Z,97413.25
2022-10-12T05:41:05.937Z,97404.34
2022-10-12T05:42:07.643Z,97412.56
2022-10-12T05:43:09.255Z,97412.13
2022-10-12T05:44:10.814Z,97414.56
2022-10-12T05:45:12.801Z,97406.47
2022-10-12T05:46:14.668Z,97413.06
2022-10-12T05:47:16.273Z,97420.91
2022-10-12T05:48:17.803Z,97414.84
2022-10-12T05:49:19.421Z,97418.41
2022-10-12T05:50:21.475Z,97415.47
2022-10-12T05:51:27.898Z,97420.59
2022-10-12T05:52:30.216Z,97423.03
2022-10-12T05:53:31.752Z,97418.41
2022-10-12T05:54:33.366Z,97417.81
2022-10-12T05:55:34.906Z,97408.66
2022-10-12T05:56:36.445Z,97415.69
2022-10-12T05:57:38.088Z,97409.56
2022-10-12T05:58:39.665Z,97414.13
2022-10-12T05:59:44.035Z,97413.97
2022-10-12T06:00:45.571Z,97415.44
2022-10-12T06:01:47.276Z,97425.47
2022-10-12T06:02:48.882Z,97424.94
2022-10-12T06:03:50.721Z,97419.72
2022-10-12T06:04:52.258Z,97425.63
2022-10-12T06:05:53.789Z,97424.41
2022-10-12T06:06:55.313Z,97428.94
2022-10-12T06:07:56.835Z,97424.25
2022-10-12T06:08:58.373Z,97425.00
2022-10-12T06:10:00.382Z,97435.94
2022-10-12T06:11:02.073Z,97430.53
2022-10-12T06:12:03.795Z,97436.88
2022-10-12T06:13:05.545Z,97434.00
2022-10-12T06:14:07.319Z,97434.28
2022-10-12T06:15:09.568Z,97437.06
2022-10-12T06:16:11.083Z,97441.41
2022-10-12T06:17:12.606Z,97436.88
2022-10-12T06:18:15.077Z,97439.31
2022-10-12T06:19:16.657Z,97439.78
2022-10-12T06:20:18.175Z,97432.91
2022-10-12T06:21:35.081Z,97441.88
2022-10-12T06:22:37.048Z,97441.66
2022-10-12T06:23:38.821Z,97435.13
2022-10-12T06:24:40.389Z,97439.47
2022-10-12T06:25:42.169Z,97444.63
2022-10-12T06:26:43.679Z,97443.19
2022-10-12T06:27:45.949Z,97438.63
2022-10-12T06:28:47.519Z,97444.94
2022-10-12T06:29:49.070Z,97445.03
2022-10-12T06:30:58.677Z,97449.75
2022-10-12T06:32:00.200Z,97443.63
2022-10-12T06:33:01.764Z,97447.47
2022-10-12T06:34:03.299Z,97450.97
2022-10-12T06:35:05.405Z,97449.03
2022-10-12T06:36:07.107Z,97450.47
2022-10-12T06:37:20.240Z,97450.47
2022-10-12T06:38:30.123Z,97452.09
2022-10-12T06:39:31.831Z,97450.91
2022-10-12T06:40:33.349Z,97459.03
2022-10-12T06:41:35.150Z,97449.69
2022-10-12T06:42:36.947Z,97456.53
2022-10-12T06:43:38.658Z,97455.75
2022-10-12T06:44:40.299Z,97463.50
2022-10-12T06:45:41.842Z,97463.50
2022-10-12T06:46:43.520Z,97456.59
2022-10-12T06:47:45.389Z,97454.31
2022-10-12T06:48:46.998Z,97459.66
2022-10-12T06:49:48.527Z,97462.03
2022-10-12T06:50:50.043Z,97463.31
2022-10-12T06:51:51.579Z,97460.59
2022-10-12T06:52:53.613Z,97463.38
2022-10-12T06:53:56.045Z,97466.44
2022-10-12T06:54:57.671Z,97464.84
2022-10-12T06:55:59.847Z,97462.81
2022-10-12T06:57:01.403Z,97465.88
2022-10-12T06:58:02.929Z,97466.72
2022-10-12T06:59:04.446Z,97469.88
2022-10-12T07:00:07.599Z,97468.28
2022-10-12T07:01:10.749Z,97468.72
2022-10-12T07:02:12.377Z,97465.28
2022-10-12T07:03:14.427Z,97466.03
2022-10-12T07:04:18.026Z,97474.56
2022-10-12T07:05:21.103Z,97475.28
2022-10-12T07:06:22.603Z,97469.06
2022-10-12T07:07:24.295Z,97477.56
2022-10-12T07:08:25.824Z,97471.00
2022-10-12T07:09:29.149Z,97474.84
2022-10-12T07:10:30.748Z,97475.22
2022-10-12T07:11:32.332Z,97470.56
2022-10-12T07:12:36.318Z,97476.84
2022-10-12T07:13:38.628Z,97472.69
2022-10-12T07:14:40.254Z,97470.06
2022-10-12T07:15:41.786Z,97471.66
2022-10-12T07:16:43.287Z,97466.22
2022-10-12T07:17:44.874Z,97468.50
2022-10-12T07:18:46.441Z,97469.00
2022-10-12T07:19:47.961Z,97471.75
2022-10-12T07:20:49.977Z,97475.69
2022-10-12T07:21:51.532Z,97467.97
2022-10-12T07:22:53.495Z,97469.53
2022-10-12T07:23:55.035Z,97472.25
2022-10-12T07:24:56.683Z,97473.00
2022-10-12T07:25:58.668Z,97467.97
2022-10-12T07:27:00.214Z,97472.69
2022-10-12T07:28:02.963Z,97470.41
2022-10-12T07:29:04.488Z,97464.56
2022-10-12T07:30:06.550Z,97471.66
2022-10-12T07:31:09.779Z,97467.47
2022-10-12T07:32:11.329Z,97469.88
2022-10-12T07:33:13.173Z,97470.78
2022-10-12T07:34:14.683Z,97470.19
2022-10-12T07:35:16.245Z,97466.03
2022-10-12T07:36:21.765Z,97470.00
2022-10-12T07:37:23.765Z,97470.88
2022-10-12T07:38:25.345Z,97469.75
2022-10-12T07:39:26.971Z,97471.41
2022-10-12T07:40:29.378Z,97476.91
2022-10-12T07:41:30.936Z,97466.53
2022-10-12T07:42:32.458Z,97468.47
2022-10-12T07:43:34.064Z,97473.16
2022-10-12T07:44:35.783Z,97476.34
2022-10-12T07:45:37.393Z,97470.88
2022-10-12T07:46:39.627Z,97469.91
2022-10-12T07:47:41.545Z,97466.69
2022-10-12T07:48:47.496Z,97472.03
2022-10-12T07:49:51.482Z,97467.84
2022-10-12T07:50:53.106Z,97469.88
2022-10-12T07:51:54.646Z,97470.44
2022-10-12T07:52:56.160Z,97463.53
2022-10-12T07:53:57.680Z,97471.41
2022-10-12T07:54:59.190Z,97472.81
2022-10-12T07:56:09.509Z,97478.31
2022-10-12T07:57:11.037Z,97471.88
2022-10-12T07:58:12.977Z,97473.44
2022-10-12T07:59:15.062Z,97466.94
2022-10-12T08:00:16.845Z,97474.81
2022-10-12T08:01:19.679Z,97473.34
2022-10-12T08:02:21.780Z,97468.31
2022-10-12T08:03:23.372Z,97465.38
2022-10-12T08:04:24.872Z,97463.94
2022-10-12T08:05:27.253Z,97467.47
2022-10-12T08:06:31.754Z,97465.56
2022-10-12T08:07:33.421Z,97464.13
2022-10-12T08:08:34.937Z,97464.97
2022-10-12T08:09:36.667Z,97462.53
2022-10-12T08:10:38.187Z,97466.34
2022-10-12T08:11:40.941Z,97459.84
2022-10-12T08:12:42.650Z,97460.47
2022-10-12T08:13:44.509Z,97457.75
2022-10-12T08:14:46.083Z,97463.63
2022-10-12T08:15:51.153Z,97458.94
2022-10-12T08:16:52.673Z,97457.25
2022-10-12T08:17:54.239Z,97454.84
2022-10-12T08:18:55.819Z,97457.16
2022-10-12T08:19:57.584Z,97456.31
2022-10-12T08:20:59.168Z,97463.22
2022-10-12T08:22:00.704Z,97458.19
2022-10-12T08:23:02.233Z,97463.94
2022-10-12T08:24:03.889Z,97462.34
2022-10-12T08:25:06.373Z,97459.94
2022-10-12T08:26:08.011Z,97465.94
2022-10-12T08:27:10.669Z,97455.59
2022-10-12T08:28:12.205Z,97461.53
2022-10-12T08:29:13.759Z,97455.91
2022-10-12T08:30:15.451Z,97456.72
2022-10-12T08:31:17.883Z,97460.41
2022-10-12T08:32:19.443Z,97459.50
2022-10-12T08:33:21.659Z,97460.41
2022-10-12T08:34:24.994Z,97466.66
2022-10-12T08:35:26.643Z,97461.91
2022-10-12T08:36:28.237Z,97459.13
2022-10-12T08:37:30.404Z,97461.84
2022-10-12T08:38:32.236Z,97452.56
2022-10-12T08:39:33.812Z,97463.16
2022-10-12T08:40:47.498Z,97462.88
2022-10-12T08:41:54.788Z,97453.66
2022-10-12T08:43:09.104Z,97458.00
2022-10-12T08:44:22.693Z,97460.06
2022-10-12T08:45:30.777Z,97457.38
2022-10-12T08:46:32.951Z,97460.59
2022-10-12T08:47:34.440Z,97453.72
2022-10-12T08:48:42.643Z,97457.34
2022-10-12T08:49:49.697Z,97457.66
2022-10-12T08:51:02.451Z,97451.75
2022-10-12T08:52:21.046Z,97461.56
2022-10-12T08:53:47.813Z,97451.25
2022-10-12T08:54:49.460Z,97452.78
2022-10-12T08:55:52.682Z,97451.19
2022-10-12T08:56:54.831Z,97454.31
2022-10-12T08:57:57.245Z,97448.44
2022-10-12T08:58:58.905Z,97454.97
2022-10-12T09:00:01.630Z,97458.75
2022-10-12T09:01:37.362Z,97454.50
2022-10-12T09:02:54.043Z,97445.59
2022-10-12T09:04:08.227Z,97445.63
2022-10-12T09:05:16.832Z,97441.44
2022-10-12T09:06:19.957Z,97436.25
2022-10-12T09:07:30.830Z,97445.41
2022-10-12T09:08:38.369Z,97441.88
2022-10-12T09:10:01.290Z,97440.63
2022-10-12T09:11:34.945Z,97442.69
2022-10-12T09:12:47.456Z,97440.50
2022-10-12T09:14:00.816Z,97439.41
2022-10-12T09:15:08.763Z,97440.31
2022-10-12T09:16:23.120Z,97439.97
2022-10-12T09:17:30.135Z,97448.47
2022-10-12T09:18:40.893Z,97447.22
2022-10-12T09:19:42.965Z,97447.22
2022-10-12T09:20:48.001Z,97437.84
2022-10-12T09:21:50.509Z,97443.22
2022-10-12T09:23:15.040Z,97447.84
2022-10-12T09:24:29.107Z,97443.13
2022-10-12T09:25:30.951Z,97436.13
2022-10-12T09:26:37.580Z,97444.69
2022-10-12T09:27:45.095Z,97446.16
2022-10-12T09:28:58.083Z,97442.09
2022-10-12T09:30:03.253Z,97439.88
2022-10-12T09:31:10.864Z,97440.31
2022-10-12T09:32:42.845Z,97444.63
2022-10-12T09:33:51.797Z,97443.22
2022-10-12T09:34:54.454Z,97448.00
2022-10-12T09:35:56.758Z,97443.34
2022-10-12T09:36:58.331Z,97439.13
2022-10-12T09:38:00.861Z,97441.44
2022-10-12T09:39:25.681Z,97439.16
2022-10-12T09:40:32.862Z,97438.41
2022-10-12T09:41:41.526Z,97436.84
2022-10-12T09:42:45.859Z,97439.38
2022-10-12T09:43:51.293Z,97435.50
2022-10-12T09:45:01.976Z,97434.69
2022-10-12T09:46:08.355Z,97436.16
2022-10-12T09:47:24.043Z,97434.25
2022-10-12T09:48:26.310Z,97437.06
2022-10-12T09:49:51.869Z,97433.97
2022-10-12T09:51:00.809Z,97441.06
2022-10-12T09:52:03.046Z,97439.53
2022-10-12T09:53:13.689Z,97439.53
2022-10-12T09:54:20.589Z,97438.00
2022-10-12T09:56:33.645Z,97432.63
2022-10-12T09:57:41.221Z,97434.28
2022-10-12T09:59:02.173Z,97437.38
2022-10-12T10:00:19.549Z,97437.03
2022-10-12T10:01:32.606Z,97436.25
2022-10-12T10:02:48.435Z,97436.28
2022-10-12T10:04:10.407Z,97436.69
2022-10-12T10:05:33.496Z,97436.56
2022-10-12T10:06:40.309Z,97432.97
2022-10-12T10:07:41.905Z,97433.84
2022-10-12T10:08:45.562Z,97437.72
2022-10-12T10:09:48.995Z,97431.91
2022-10-12T10:10:55.554Z,97433.44
2022-10-12T10:11:59.089Z,97433.09
2022-10-12T10:13:03.043Z,97427.34
2022-10-12T10:14:04.658Z,97434.34
2022-10-12T10:15:30.332Z,97422.66
2022-10-12T10:16:31.920Z,97423.41
2022-10-12T10:17:34.081Z,97421.88
2022-10-12T10:18:53.981Z,97421.50
2022-10-12T10:19:57.103Z,97421.56
2022-10-12T10:21:00.289Z,97422.66
2022-10-12T10:22:06.701Z,97415.63
2022-10-12T10:23:24.615Z,97427.22
2022-10-12T10:24:31.665Z,97414.88
2022-10-12T10:25:34.496Z,97419.97
2022-10-12T10:26:56.825Z,97418.03
2022-10-12T10:28:23.392Z,97411.03
2022-10-12T10:29:41.381Z,97413.50
2022-10-12T10:30:43.406Z,97415.97
2022-10-12T10:31:48.004Z,97400.00
2022-10-12T10:33:06.412Z,97405.88
2022-10-12T10:34:12.779Z,97409.00
2022-10-12T10:35:14.287Z,97398.88
2022-10-12T10:36:22.447Z,97398.09
2022-10-12T10:37:24.279Z,97408.25
2022-10-12T10:38:26.121Z,97404.44
2022-10-12T10:39:32.930Z,97397.47
2022-10-12T10:40:34.838Z,97409.22
2022-10-12T10:41:39.591Z,97402.28
2022-10-12T10:42:41.177Z,97402.31
2022-10-12T10:43:47.155Z,97403.13
2022-10-12T10:44:57.117Z,97398.50
2022-10-12T10:46:02.096Z,97401.66
2022-10-12T10:47:11.682Z,97397.28
2022-10-12T10:48:20.497Z,97389.13
2022-10-12T10:49:33.537Z,97395.44
2022-10-12T10:50:41.348Z,97396.28
2022-10-12T10:51:53.987Z,97392.78
2022-10-12T10:52:59.073Z,97387.69
2022-10-12T10:54:14.011Z,97393.06
2022-10-12T10:55:21.800Z,97391.41
2022-10-12T10:56:28.118Z,97387.53
2022-10-12T10:57:29.747Z,97390.31
2022-10-12T10:58:38.955Z,97395.00
2022-10-12T11:00:33.462Z,97393.06
2022-10-12T11:01:38.718Z,97392.34
2022-10-12T11:02:56.924Z,97393.13
2022-10-12T11:04:04.526Z,97386.13
2022-10-12T11:05:20.912Z,97390.75
2022-10-12T11:07:07.315Z,97388.78
2022-10-12T11:08:23.934Z,97379.44
2022-10-12T11:09:34.499Z,97382.16
2022-10-12T11:10:44.172Z,97380.94
2022-10-12T11:11:53.936Z,97382.16
2022-10-12T11:13:01.165Z,97382.19
2022-10-12T11:14:15.143Z,97377.16
2022-10-12T11:15:29.836Z,97376.72
2022-10-12T11:16:40.721Z,97375.84
2022-10-12T11:17:46.767Z,97372.78
2022-10-12T11:18:56.074Z,97373.56
2022-10-12T11:20:06.749Z,97370.34
2022-10-12T11:21:15.553Z,97367.00
2022-10-12T11:22:32.959Z,97372.09
2022-10-12T11:23:48.951Z,97371.38
2022-10-12T11:24:58.770Z,97370.59
2022-10-12T11:26:03.611Z,97364.75
2022-10-12T11:27:12.766Z,97360.47
2022-10-12T11:28:16.500Z,97365.50
2022-10-12T11:29:18.523Z,97361.91
2022-10-12T11:30:26.230Z,97349.50
2022-10-12T11:31:42.946Z,97360.47
2022-10-12T11:32:53.475Z,97361.28
2022-10-12T11:33:58.444Z,97354.34
2022-10-12T11:35:03.834Z,97359.78
2022-10-12T11:36:13.397Z,97355.91
2022-10-12T11:37:20.987Z,97354.34
2022-10-12T11:38:36.178Z,97362.19
2022-10-12T11:39:45.171Z,97355.59
2022-10-12T11:42:21.942Z,97354.50
2022-10-12T11:43:30.237Z,97357.28
2022-10-12T11:44:46.334Z,97355.28
2022-10-12T11:45:52.224Z,97351.72
2022-10-12T11:47:04.627Z,97356.00
2022-10-12T11:48:41.418Z,97351.00
2022-10-12T11:50:01.795Z,97354.50
2022-10-12T11:51:05.541Z,97345.19
2022-10-12T11:52:11.055Z,97342.88
2022-10-12T11:53:40.579Z,97341.31
2022-10-12T11:54:55.501Z,97345.59
2022-10-12T11:56:25.036Z,97342.16
2022-10-12T11:57:31.437Z,97339.03
2022-10-12T11:59:00.070Z,97342.94
2022-10-12T12:00:22.652Z,97345.22
2022-10-12T12:01:42.489Z,97338.25
2022-10-12T12:02:56.263Z,97338.25
2022-10-12T12:04:47.861Z,97341.69
2022-10-12T12:05:40.977Z,97343.94
2022-10-12T12:06:49.199Z,97341.97
2022-10-12T12:07:55.498Z,97339.63
2022-10-12T12:08:59.129Z,97344.28
2022-10-12T12:10:00.697Z,97343.50
2022-10-12T12:11:19.468Z,97349.72
2022-10-12T12:12:26.554Z,97342.56
2022-10-12T12:13:28.584Z,97339.88
2022-10-12T12:14:30.162Z,97340.72
2022-10-12T12:15:31.772Z,97342.34
2022-10-12T12:16:33.686Z,97342.38
2022-10-12T12:17:36.267Z,97338.09
2022-10-12T12:19:15.157Z,97341.31
2022-10-12T12:20:44.820Z,97333.59
2022-10-12T12:22:14.335Z,97339.84
2022-10-12T12:23:18.773Z,97330.47
2022-10-12T12:24:20.407Z,97337.13
2022-10-12T12:25:27.818Z,97336.72
2022-10-12T12:26:30.681Z,97327.41
2022-10-12T12:27:42.997Z,97332.09
2022-10-12T12:29:09.367Z,97327.03
2022-10-12T12:30:20.405Z,97322.78
2022-10-12T12:31:24.775Z,97323.56
2022-10-12T12:32:39.559Z,97323.97
2022-10-12T12:33:42.978Z,97322.81
2022-10-12T12:35:00.274Z,97331.38
2022-10-12T12:36:06.329Z,97325.16
2022-10-12T12:37:13.859Z,97323.22
2022-10-12T12:38:20.182Z,97327.50
2022-10-12T12:39:33.142Z,97332.94
2022-10-12T12:40:35.533Z,97334.50
2022-10-12T12:42:01.656Z,97330.19
2022-10-12T12:43:38.753Z,97327.44
2022-10-12T12:44:43.062Z,97333.69
2022-10-12T12:46:06.590Z,97331.34
2022-10-12T12:48:41.595Z,97331.75
2022-10-12T12:49:55.162Z,97334.06
2022-10-12T12:50:59.857Z,97329.00
2022-10-12T12:52:01.614Z,97334.84
2022-10-12T12:53:08.488Z,97337.16
2022-10-12T12:54:20.949Z,97335.19
2022-10-12T12:55:25.676Z,97330.94
2022-10-12T12:56:51.001Z,97334.44
2022-10-12T12:57:55.372Z,97337.53
2022-10-12T12:59:01.243Z,97337.53
2022-10-12T13:00:12.337Z,97339.06
2022-10-12T13:01:44.104Z,97337.16
2022-10-12T13:02:55.789Z,97335.22
2022-10-12T13:04:14.143Z,97333.66